sensor_id;sensor_type;location;lat;lon;timestamp;temperature;humidity
66144;SHT31;52947;50.842;6.084;2023-06-10T00:01:56;19.88;67.80
66144;SHT31;52947;50.842;6.084;2023-06-10T00:04:26;19.73;68.17
66144;SHT31;52947;50.842;6.084;2023-06-10T00:06:55;19.54;68.57
66144;SHT31;52947;50.842;6.084;2023-06-10T00:09:25;19.46;68.77
66144;SHT31;52947;50.842;6.084;2023-06-10T00:11:53;19.36;69.17
66144;SHT31;52947;50.842;6.084;2023-06-10T00:14:21;19.29;69.52
66144;SHT31;52947;50.842;6.084;2023-06-10T00:16:49;19.16;69.68
66144;SHT31;52947;50.842;6.084;2023-06-10T00:19:18;19.19;69.70
66144;SHT31;52947;50.842;6.084;2023-06-10T00:21:52;19.06;69.62
66144;SHT31;52947;50.842;6.084;2023-06-10T00:24:20;19.05;69.94
66144;SHT31;52947;50.842;6.084;2023-06-10T00:26:50;18.92;70.29
66144;SHT31;52947;50.842;6.084;2023-06-10T00:29:18;18.82;70.17
66144;SHT31;52947;50.842;6.084;2023-06-10T00:31:46;18.68;70.23
66144;SHT31;52947;50.842;6.084;2023-06-10T00:34:14;18.62;70.55
66144;SHT31;52947;50.842;6.084;2023-06-10T00:36:42;18.45;70.60
66144;SHT31;52947;50.842;6.084;2023-06-10T00:39:09;18.38;73.85
66144;SHT31;52947;50.842;6.084;2023-06-10T00:41:37;18.60;73.80
66144;SHT31;52947;50.842;6.084;2023-06-10T00:44:07;18.71;73.74
66144;SHT31;52947;50.842;6.084;2023-06-10T00:46:35;18.98;73.44
66144;SHT31;52947;50.842;6.084;2023-06-10T00:49:04;19.02;72.89
66144;SHT31;52947;50.842;6.084;2023-06-10T00:51:32;19.06;72.70
66144;SHT31;52947;50.842;6.084;2023-06-10T00:54:01;18.84;72.83
66144;SHT31;52947;50.842;6.084;2023-06-10T00:56:29;18.82;73.58
66144;SHT31;52947;50.842;6.084;2023-06-10T00:58:58;18.94;73.14
66144;SHT31;52947;50.842;6.084;2023-06-10T01:01:28;18.79;73.42
66144;SHT31;52947;50.842;6.084;2023-06-10T01:03:57;18.91;73.75
66144;SHT31;52947;50.842;6.084;2023-06-10T01:06:31;19.05;73.32
66144;SHT31;52947;50.842;6.084;2023-06-10T01:09:11;18.99;73.18
66144;SHT31;52947;50.842;6.084;2023-06-10T01:11:46;18.98;73.59
66144;SHT31;52947;50.842;6.084;2023-06-10T01:14:15;18.95;72.87
66144;SHT31;52947;50.842;6.084;2023-06-10T01:16:45;18.94;72.96
66144;SHT31;52947;50.842;6.084;2023-06-10T01:19:13;18.91;73.24
66144;SHT31;52947;50.842;6.084;2023-06-10T01:21:45;18.95;72.76
66144;SHT31;52947;50.842;6.084;2023-06-10T01:24:18;19.09;72.70
66144;SHT31;52947;50.842;6.084;2023-06-10T01:26:48;18.91;72.65
66144;SHT31;52947;50.842;6.084;2023-06-10T01:29:21;18.41;72.03
66144;SHT31;52947;50.842;6.084;2023-06-10T01:31:56;17.97;72.74
66144;SHT31;52947;50.842;6.084;2023-06-10T01:34:26;17.65;73.51
66144;SHT31;52947;50.842;6.084;2023-06-10T01:36:57;17.38;73.72
66144;SHT31;52947;50.842;6.084;2023-06-10T01:39:26;17.19;74.26
66144;SHT31;52947;50.842;6.084;2023-06-10T01:41:55;17.06;74.69
66144;SHT31;52947;50.842;6.084;2023-06-10T01:44:24;16.92;74.51
66144;SHT31;52947;50.842;6.084;2023-06-10T01:46:52;16.81;75.19
66144;SHT31;52947;50.842;6.084;2023-06-10T01:49:20;16.70;75.71
66144;SHT31;52947;50.842;6.084;2023-06-10T01:51:48;16.61;75.84
66144;SHT31;52947;50.842;6.084;2023-06-10T01:54:17;16.55;75.75
66144;SHT31;52947;50.842;6.084;2023-06-10T01:56:46;16.45;76.09
66144;SHT31;52947;50.842;6.084;2023-06-10T01:59:14;16.40;76.53
66144;SHT31;52947;50.842;6.084;2023-06-10T02:01:42;16.33;76.66
66144;SHT31;52947;50.842;6.084;2023-06-10T02:04:10;16.25;76.91
66144;SHT31;52947;50.842;6.084;2023-06-10T02:06:38;16.25;76.99
66144;SHT31;52947;50.842;6.084;2023-06-10T02:09:06;16.29;77.65
66144;SHT31;52947;50.842;6.084;2023-06-10T02:11:35;16.80;79.93
66144;SHT31;52947;50.842;6.084;2023-06-10T02:14:03;16.92;78.36
66144;SHT31;52947;50.842;6.084;2023-06-10T02:16:31;17.24;77.35
66144;SHT31;52947;50.842;6.084;2023-06-10T02:18:59;17.36;77.39
66144;SHT31;52947;50.842;6.084;2023-06-10T02:21:27;17.56;77.70
66144;SHT31;52947;50.842;6.084;2023-06-10T02:23:55;17.79;76.80
66144;SHT31;52947;50.842;6.084;2023-06-10T02:26:23;18.00;76.78
66144;SHT31;52947;50.842;6.084;2023-06-10T02:28:54;18.03;76.05
66144;SHT31;52947;50.842;6.084;2023-06-10T02:31:22;18.11;75.68
66144;SHT31;52947;50.842;6.084;2023-06-10T02:33:51;17.97;76.18
66144;SHT31;52947;50.842;6.084;2023-06-10T02:36:20;17.86;75.63
66144;SHT31;52947;50.842;6.084;2023-06-10T02:38:48;18.11;76.14
66144;SHT31;52947;50.842;6.084;2023-06-10T02:41:17;18.11;75.33
66144;SHT31;52947;50.842;6.084;2023-06-10T02:43:46;18.36;75.13
66144;SHT31;52947;50.842;6.084;2023-06-10T02:46:15;18.24;74.55
66144;SHT31;52947;50.842;6.084;2023-06-10T02:48:45;18.13;74.84
66144;SHT31;52947;50.842;6.084;2023-06-10T02:51:19;17.78;75.12
66144;SHT31;52947;50.842;6.084;2023-06-10T02:53:50;17.66;76.13
66144;SHT31;52947;50.842;6.084;2023-06-10T02:56:19;17.63;76.35
66144;SHT31;52947;50.842;6.084;2023-06-10T02:58:47;17.62;76.67
66144;SHT31;52947;50.842;6.084;2023-06-10T03:01:17;17.63;76.93
66144;SHT31;52947;50.842;6.084;2023-06-10T03:03:54;17.65;76.29
66144;SHT31;52947;50.842;6.084;2023-06-10T03:06:23;17.83;75.89
66144;SHT31;52947;50.842;6.084;2023-06-10T03:08:59;17.86;75.52
66144;SHT31;52947;50.842;6.084;2023-06-10T03:11:27;17.72;75.66
66144;SHT31;52947;50.842;6.084;2023-06-10T03:13:56;17.82;76.30
66144;SHT31;52947;50.842;6.084;2023-06-10T03:16:28;17.78;75.61
66144;SHT31;52947;50.842;6.084;2023-06-10T03:18:57;17.79;75.77
66144;SHT31;52947;50.842;6.084;2023-06-10T03:21:25;17.65;75.38
66144;SHT31;52947;50.842;6.084;2023-06-10T03:23:55;17.76;75.89
66144;SHT31;52947;50.842;6.084;2023-06-10T03:26:23;17.69;75.63
66144;SHT31;52947;50.842;6.084;2023-06-10T03:28:52;17.70;76.13
66144;SHT31;52947;50.842;6.084;2023-06-10T03:31:22;17.58;75.89
66144;SHT31;52947;50.842;6.084;2023-06-10T03:33:54;17.56;76.69
66144;SHT31;52947;50.842;6.084;2023-06-10T03:36:22;17.70;76.12
66144;SHT31;52947;50.842;6.084;2023-06-10T03:38:50;17.59;76.02
66144;SHT31;52947;50.842;6.084;2023-06-10T03:41:19;17.48;76.63
66144;SHT31;52947;50.842;6.084;2023-06-10T03:43:49;17.49;76.86
66144;SHT31;52947;50.842;6.084;2023-06-10T03:46:17;17.58;76.67
66144;SHT31;52947;50.842;6.084;2023-06-10T03:48:46;17.59;76.45
66144;SHT31;52947;50.842;6.084;2023-06-10T03:51:16;17.56;76.44
66144;SHT31;52947;50.842;6.084;2023-06-10T03:53:44;17.56;76.09
66144;SHT31;52947;50.842;6.084;2023-06-10T03:56:12;17.62;76.14
66144;SHT31;52947;50.842;6.084;2023-06-10T03:58:40;17.70;76.47
66144;SHT31;52947;50.842;6.084;2023-06-10T04:01:12;17.63;75.11
66144;SHT31;52947;50.842;6.084;2023-06-10T04:03:41;17.61;75.49
66144;SHT31;52947;50.842;6.084;2023-06-10T04:06:10;17.49;76.16
66144;SHT31;52947;50.842;6.084;2023-06-10T04:08:40;17.49;76.70
66144;SHT31;52947;50.842;6.084;2023-06-10T04:11:07;17.53;75.95
66144;SHT31;52947;50.842;6.084;2023-06-10T04:13:35;17.48;76.40
66144;SHT31;52947;50.842;6.084;2023-06-10T04:16:05;17.53;76.54
66144;SHT31;52947;50.842;6.084;2023-06-10T04:18:33;17.56;76.81
66144;SHT31;52947;50.842;6.084;2023-06-10T04:21:06;17.48;76.09
66144;SHT31;52947;50.842;6.084;2023-06-10T04:23:34;17.69;76.89
66144;SHT31;52947;50.842;6.084;2023-06-10T04:26:04;17.83;76.09
66144;SHT31;52947;50.842;6.084;2023-06-10T04:28:33;17.93;75.69
66144;SHT31;52947;50.842;6.084;2023-06-10T04:31:02;17.87;76.01
66144;SHT31;52947;50.842;6.084;2023-06-10T04:33:31;17.90;75.81
66144;SHT31;52947;50.842;6.084;2023-06-10T04:36:01;17.90;75.70
66144;SHT31;52947;50.842;6.084;2023-06-10T04:38:30;18.07;75.92
66144;SHT31;52947;50.842;6.084;2023-06-10T04:40:59;18.20;75.17
66144;SHT31;52947;50.842;6.084;2023-06-10T04:43:31;18.40;74.90
66144;SHT31;52947;50.842;6.084;2023-06-10T04:46:00;18.67;74.61
66144;SHT31;52947;50.842;6.084;2023-06-10T04:48:29;18.98;73.99
66144;SHT31;52947;50.842;6.084;2023-06-10T04:50:58;19.08;73.34
66144;SHT31;52947;50.842;6.084;2023-06-10T04:53:26;19.26;72.69
66144;SHT31;52947;50.842;6.084;2023-06-10T04:55:56;19.34;72.25
66144;SHT31;52947;50.842;6.084;2023-06-10T04:58:24;19.49;72.11
66144;SHT31;52947;50.842;6.084;2023-06-10T05:00:53;19.60;72.86
66144;SHT31;52947;50.842;6.084;2023-06-10T05:03:21;20.03;71.72
66144;SHT31;52947;50.842;6.084;2023-06-10T05:05:49;20.34;71.17
66144;SHT31;52947;50.842;6.084;2023-06-10T05:08:17;20.77;69.88
66144;SHT31;52947;50.842;6.084;2023-06-10T05:10:45;21.23;67.99
66144;SHT31;52947;50.842;6.084;2023-06-10T05:13:13;21.95;65.96
66144;SHT31;52947;50.842;6.084;2023-06-10T05:15:41;22.29;65.36
66144;SHT31;52947;50.842;6.084;2023-06-10T05:18:12;23.14;64.08
66144;SHT31;52947;50.842;6.084;2023-06-10T05:20:40;23.83;61.30
66144;SHT31;52947;50.842;6.084;2023-06-10T05:23:08;24.36;60.21
66144;SHT31;52947;50.842;6.084;2023-06-10T05:25:36;24.87;59.78
66144;SHT31;52947;50.842;6.084;2023-06-10T05:28:04;25.38;57.78
66144;SHT31;52947;50.842;6.084;2023-06-10T05:30:32;25.97;56.25
66144;SHT31;52947;50.842;6.084;2023-06-10T05:33:00;26.34;55.86
66144;SHT31;52947;50.842;6.084;2023-06-10T05:35:30;26.21;55.33
66144;SHT31;52947;50.842;6.084;2023-06-10T05:37:58;26.16;55.96
66144;SHT31;52947;50.842;6.084;2023-06-10T05:40:29;26.59;55.49
66144;SHT31;52947;50.842;6.084;2023-06-10T05:42:57;26.89;54.76
66144;SHT31;52947;50.842;6.084;2023-06-10T05:45:25;27.65;53.75
66144;SHT31;52947;50.842;6.084;2023-06-10T05:47:53;27.74;53.33
66144;SHT31;52947;50.842;6.084;2023-06-10T05:50:21;28.49;51.32
66144;SHT31;52947;50.842;6.084;2023-06-10T05:52:50;28.90;51.12
66144;SHT31;52947;50.842;6.084;2023-06-10T05:55:20;28.46;51.79
66144;SHT31;52947;50.842;6.084;2023-06-10T05:57:58;28.84;51.31
66144;SHT31;52947;50.842;6.084;2023-06-10T06:00:26;29.18;51.23
66144;SHT31;52947;50.842;6.084;2023-06-10T06:02:54;29.86;49.98
66144;SHT31;52947;50.842;6.084;2023-06-10T06:05:24;30.26;48.93
66144;SHT31;52947;50.842;6.084;2023-06-10T06:07:53;30.44;48.70
66144;SHT31;52947;50.842;6.084;2023-06-10T06:10:21;30.60;47.87
66144;SHT31;52947;50.842;6.084;2023-06-10T06:12:49;30.08;48.56
66144;SHT31;52947;50.842;6.084;2023-06-10T06:15:17;30.85;47.17
66144;SHT31;52947;50.842;6.084;2023-06-10T06:17:44;31.29;46.61
66144;SHT31;52947;50.842;6.084;2023-06-10T06:20:12;32.00;45.50
66144;SHT31;52947;50.842;6.084;2023-06-10T06:22:44;32.72;44.70
66144;SHT31;52947;50.842;6.084;2023-06-10T06:25:14;32.86;44.50
66144;SHT31;52947;50.842;6.084;2023-06-10T06:27:42;32.58;44.81
66144;SHT31;52947;50.842;6.084;2023-06-10T06:30:11;33.21;43.66
66144;SHT31;52947;50.842;6.084;2023-06-10T06:32:39;32.89;43.22
66144;SHT31;52947;50.842;6.084;2023-06-10T06:35:07;32.54;43.86
66144;SHT31;52947;50.842;6.084;2023-06-10T06:37:36;33.09;43.00
66144;SHT31;52947;50.842;6.084;2023-06-10T06:40:17;32.33;43.82
66144;SHT31;52947;50.842;6.084;2023-06-10T06:42:45;32.92;43.90
66144;SHT31;52947;50.842;6.084;2023-06-10T06:45:42;32.89;43.87
66144;SHT31;52947;50.842;6.084;2023-06-10T06:48:10;31.25;46.14
66144;SHT31;52947;50.842;6.084;2023-06-10T06:50:38;30.75;46.15
66144;SHT31;52947;50.842;6.084;2023-06-10T06:53:08;30.19;46.64
66144;SHT31;52947;50.842;6.084;2023-06-10T06:55:37;31.77;44.92
66144;SHT31;52947;50.842;6.084;2023-06-10T06:58:06;31.43;44.49
66144;SHT31;52947;50.842;6.084;2023-06-10T07:00:34;30.98;45.42
66144;SHT31;52947;50.842;6.084;2023-06-10T07:03:01;31.73;45.30
66144;SHT31;52947;50.842;6.084;2023-06-10T07:05:29;32.17;44.32
66144;SHT31;52947;50.842;6.084;2023-06-10T07:07:58;32.09;44.48
66144;SHT31;52947;50.842;6.084;2023-06-10T07:10:26;32.44;43.38
66144;SHT31;52947;50.842;6.084;2023-06-10T07:12:55;33.15;42.47
66144;SHT31;52947;50.842;6.084;2023-06-10T07:15:23;32.89;41.90
66144;SHT31;52947;50.842;6.084;2023-06-10T07:17:51;31.66;44.47
66144;SHT31;52947;50.842;6.084;2023-06-10T07:20:19;32.35;42.81
66144;SHT31;52947;50.842;6.084;2023-06-10T07:22:47;32.10;43.01
66144;SHT31;52947;50.842;6.084;2023-06-10T07:25:15;32.68;42.34
66144;SHT31;52947;50.842;6.084;2023-06-10T07:27:43;33.19;42.29
66144;SHT31;52947;50.842;6.084;2023-06-10T07:30:13;34.64;40.83
66144;SHT31;52947;50.842;6.084;2023-06-10T07:32:41;34.56;40.62
66144;SHT31;52947;50.842;6.084;2023-06-10T07:35:10;34.91;40.20
66144;SHT31;52947;50.842;6.084;2023-06-10T07:37:38;33.72;40.33
66144;SHT31;52947;50.842;6.084;2023-06-10T07:40:07;33.32;42.41
66144;SHT31;52947;50.842;6.084;2023-06-10T07:42:36;34.38;40.52
66144;SHT31;52947;50.842;6.084;2023-06-10T07:45:05;34.76;40.82
66144;SHT31;52947;50.842;6.084;2023-06-10T07:47:35;34.45;39.66
66144;SHT31;52947;50.842;6.084;2023-06-10T07:50:03;33.90;41.12
66144;SHT31;52947;50.842;6.084;2023-06-10T07:52:31;32.98;42.70
66144;SHT31;52947;50.842;6.084;2023-06-10T07:54:59;34.66;40.36
66144;SHT31;52947;50.842;6.084;2023-06-10T07:57:27;33.19;41.98
66144;SHT31;52947;50.842;6.084;2023-06-10T07:59:55;34.28;41.49
66144;SHT31;52947;50.842;6.084;2023-06-10T08:02:24;32.48;44.05
66144;SHT31;52947;50.842;6.084;2023-06-10T08:04:53;31.79;44.82
66144;SHT31;52947;50.842;6.084;2023-06-10T08:07:21;32.31;43.60
66144;SHT31;52947;50.842;6.084;2023-06-10T08:09:49;34.15;40.68
66144;SHT31;52947;50.842;6.084;2023-06-10T08:12:17;34.17;41.50
66144;SHT31;52947;50.842;6.084;2023-06-10T08:14:46;34.61;39.35
66144;SHT31;52947;50.842;6.084;2023-06-10T08:17:14;34.23;40.66
66144;SHT31;52947;50.842;6.084;2023-06-10T08:19:41;34.95;40.47
66144;SHT31;52947;50.842;6.084;2023-06-10T08:22:11;34.49;40.62
66144;SHT31;52947;50.842;6.084;2023-06-10T08:24:38;32.17;43.70
66144;SHT31;52947;50.842;6.084;2023-06-10T08:27:06;31.34;45.89
66144;SHT31;52947;50.842;6.084;2023-06-10T08:29:34;32.19;44.16
66144;SHT31;52947;50.842;6.084;2023-06-10T08:32:03;33.60;42.17
66144;SHT31;52947;50.842;6.084;2023-06-10T08:34:33;31.90;43.88
66144;SHT31;52947;50.842;6.084;2023-06-10T08:37:02;32.24;44.37
66144;SHT31;52947;50.842;6.084;2023-06-10T08:39:31;33.47;42.55
66144;SHT31;52947;50.842;6.084;2023-06-10T08:42:04;34.66;40.72
66144;SHT31;52947;50.842;6.084;2023-06-10T08:44:36;34.24;40.40
66144;SHT31;52947;50.842;6.084;2023-06-10T08:47:10;34.28;40.84
66144;SHT31;52947;50.842;6.084;2023-06-10T08:49:43;33.84;40.36
66144;SHT31;52947;50.842;6.084;2023-06-10T08:52:14;34.03;40.85
66144;SHT31;52947;50.842;6.084;2023-06-10T08:54:48;34.23;40.42
66144;SHT31;52947;50.842;6.084;2023-06-10T08:57:17;34.55;40.30
66144;SHT31;52947;50.842;6.084;2023-06-10T08:59:47;34.25;39.68
66144;SHT31;52947;50.842;6.084;2023-06-10T09:02:15;34.35;39.82
66144;SHT31;52947;50.842;6.084;2023-06-10T09:04:46;32.61;41.41
66144;SHT31;52947;50.842;6.084;2023-06-10T09:07:15;32.91;41.99
66144;SHT31;52947;50.842;6.084;2023-06-10T09:09:45;33.64;41.25
66144;SHT31;52947;50.842;6.084;2023-06-10T09:12:13;33.52;41.64
66144;SHT31;52947;50.842;6.084;2023-06-10T09:14:41;33.06;42.64
66144;SHT31;52947;50.842;6.084;2023-06-10T09:17:10;33.45;42.01
66144;SHT31;52947;50.842;6.084;2023-06-10T09:19:38;33.04;41.98
66144;SHT31;52947;50.842;6.084;2023-06-10T09:22:07;31.96;44.13
66144;SHT31;52947;50.842;6.084;2023-06-10T09:24:36;32.13;42.98
66144;SHT31;52947;50.842;6.084;2023-06-10T09:27:06;32.64;43.08
66144;SHT31;52947;50.842;6.084;2023-06-10T09:29:46;33.22;41.31
66144;SHT31;52947;50.842;6.084;2023-06-10T09:32:15;33.52;41.05
66144;SHT31;52947;50.842;6.084;2023-06-10T09:34:45;32.98;42.68
66144;SHT31;52947;50.842;6.084;2023-06-10T09:37:19;32.99;41.35
66144;SHT31;52947;50.842;6.084;2023-06-10T09:40:01;33.26;41.74
66144;SHT31;52947;50.842;6.084;2023-06-10T09:42:33;32.20;41.75
66144;SHT31;52947;50.842;6.084;2023-06-10T09:45:02;31.11;43.24
66144;SHT31;52947;50.842;6.084;2023-06-10T09:47:30;31.97;43.06
66144;SHT31;52947;50.842;6.084;2023-06-10T09:49:58;31.85;43.83
66144;SHT31;52947;50.842;6.084;2023-06-10T09:52:28;30.14;44.80
66144;SHT31;52947;50.842;6.084;2023-06-10T09:54:59;30.85;44.45
66144;SHT31;52947;50.842;6.084;2023-06-10T09:57:32;30.71;43.57
66144;SHT31;52947;50.842;6.084;2023-06-10T10:00:04;31.35;42.68
66144;SHT31;52947;50.842;6.084;2023-06-10T10:02:44;31.79;42.59
66144;SHT31;52947;50.842;6.084;2023-06-10T10:05:14;30.12;44.86
66144;SHT31;52947;50.842;6.084;2023-06-10T10:07:42;31.11;43.76
66144;SHT31;52947;50.842;6.084;2023-06-10T10:10:11;31.46;43.11
66144;SHT31;52947;50.842;6.084;2023-06-10T10:12:41;31.77;42.78
66144;SHT31;52947;50.842;6.084;2023-06-10T10:15:10;31.63;42.59
66144;SHT31;52947;50.842;6.084;2023-06-10T10:17:40;31.70;43.43
66144;SHT31;52947;50.842;6.084;2023-06-10T10:20:13;31.62;44.36
66144;SHT31;52947;50.842;6.084;2023-06-10T10:22:43;31.72;43.34
66144;SHT31;52947;50.842;6.084;2023-06-10T10:25:16;31.90;43.43
66144;SHT31;52947;50.842;6.084;2023-06-10T10:27:49;32.43;42.89
66144;SHT31;52947;50.842;6.084;2023-06-10T10:30:20;31.94;43.99
66144;SHT31;52947;50.842;6.084;2023-06-10T10:32:56;30.74;45.33
66144;SHT31;52947;50.842;6.084;2023-06-10T10:35:25;29.89;45.72
66144;SHT31;52947;50.842;6.084;2023-06-10T10:37:53;29.82;45.40
66144;SHT31;52947;50.842;6.084;2023-06-10T10:40:22;29.89;45.90
66144;SHT31;52947;50.842;6.084;2023-06-10T10:42:52;30.71;45.23
66144;SHT31;52947;50.842;6.084;2023-06-10T10:45:22;31.35;43.42
66144;SHT31;52947;50.842;6.084;2023-06-10T10:47:51;31.89;42.27
66144;SHT31;52947;50.842;6.084;2023-06-10T10:50:20;31.70;42.22
66144;SHT31;52947;50.842;6.084;2023-06-10T10:52:54;30.32;44.81
66144;SHT31;52947;50.842;6.084;2023-06-10T10:55:23;30.30;44.54
66144;SHT31;52947;50.842;6.084;2023-06-10T10:57:58;31.39;43.25
66144;SHT31;52947;50.842;6.084;2023-06-10T11:00:30;32.10;41.12
66144;SHT31;52947;50.842;6.084;2023-06-10T11:03:03;31.61;42.27
66144;SHT31;52947;50.842;6.084;2023-06-10T11:05:38;31.31;42.86
66144;SHT31;52947;50.842;6.084;2023-06-10T11:08:08;32.34;42.28
66144;SHT31;52947;50.842;6.084;2023-06-10T11:10:37;30.02;43.70
66144;SHT31;52947;50.842;6.084;2023-06-10T11:13:08;31.63;43.04
66144;SHT31;52947;50.842;6.084;2023-06-10T11:15:43;31.52;42.74
66144;SHT31;52947;50.842;6.084;2023-06-10T11:18:14;29.95;44.79
66144;SHT31;52947;50.842;6.084;2023-06-10T11:20:51;31.58;42.60
66144;SHT31;52947;50.842;6.084;2023-06-10T11:23:33;32.19;41.67
66144;SHT31;52947;50.842;6.084;2023-06-10T11:26:12;31.80;42.92
66144;SHT31;52947;50.842;6.084;2023-06-10T11:29:01;31.18;43.19
66144;SHT31;52947;50.842;6.084;2023-06-10T11:31:30;31.42;42.90
66144;SHT31;52947;50.842;6.084;2023-06-10T11:34:00;32.33;41.06
66144;SHT31;52947;50.842;6.084;2023-06-10T11:36:29;31.79;42.03
66144;SHT31;52947;50.842;6.084;2023-06-10T11:38:58;32.21;40.29
66144;SHT31;52947;50.842;6.084;2023-06-10T11:41:27;32.54;40.45
66144;SHT31;52947;50.842;6.084;2023-06-10T11:44:01;32.06;40.61
66144;SHT31;52947;50.842;6.084;2023-06-10T11:46:29;33.06;40.18
66144;SHT31;52947;50.842;6.084;2023-06-10T11:48:58;32.78;38.93
66144;SHT31;52947;50.842;6.084;2023-06-10T11:51:27;32.67;38.46
66144;SHT31;52947;50.842;6.084;2023-06-10T11:53:55;32.27;39.62
66144;SHT31;52947;50.842;6.084;2023-06-10T11:56:24;31.52;41.73
66144;SHT31;52947;50.842;6.084;2023-06-10T11:58:54;32.21;40.70
66144;SHT31;52947;50.842;6.084;2023-06-10T12:01:25;32.17;39.77
66144;SHT31;52947;50.842;6.084;2023-06-10T12:04:00;33.04;38.94
66144;SHT31;52947;50.842;6.084;2023-06-10T12:06:37;32.48;40.12
66144;SHT31;52947;50.842;6.084;2023-06-10T12:09:06;33.06;38.58
66144;SHT31;52947;50.842;6.084;2023-06-10T12:11:50;32.78;38.37
66144;SHT31;52947;50.842;6.084;2023-06-10T12:14:50;33.46;37.36
66144;SHT31;52947;50.842;6.084;2023-06-10T12:17:22;32.70;37.22
66144;SHT31;52947;50.842;6.084;2023-06-10T12:19:51;33.23;36.58
66144;SHT31;52947;50.842;6.084;2023-06-10T12:22:19;32.94;37.84
66144;SHT31;52947;50.842;6.084;2023-06-10T12:24:57;33.19;37.29
66144;SHT31;52947;50.842;6.084;2023-06-10T12:27:27;33.49;35.90
66144;SHT31;52947;50.842;6.084;2023-06-10T12:29:56;33.81;37.94
66144;SHT31;52947;50.842;6.084;2023-06-10T12:32:40;32.65;37.67
66144;SHT31;52947;50.842;6.084;2023-06-10T12:35:09;32.26;37.56
66144;SHT31;52947;50.842;6.084;2023-06-10T12:37:39;31.05;39.74
66144;SHT31;52947;50.842;6.084;2023-06-10T12:40:10;31.52;40.07
66144;SHT31;52947;50.842;6.084;2023-06-10T12:42:38;32.34;39.33
66144;SHT31;52947;50.842;6.084;2023-06-10T12:45:07;30.85;39.68
66144;SHT31;52947;50.842;6.084;2023-06-10T12:47:38;31.93;39.27
66144;SHT31;52947;50.842;6.084;2023-06-10T12:50:07;32.26;37.01
66144;SHT31;52947;50.842;6.084;2023-06-10T12:52:35;32.00;37.35
66144;SHT31;52947;50.842;6.084;2023-06-10T12:55:04;31.89;37.89
66144;SHT31;52947;50.842;6.084;2023-06-10T12:57:32;31.62;38.18
66144;SHT31;52947;50.842;6.084;2023-06-10T13:00:00;32.04;39.12
66144;SHT31;52947;50.842;6.084;2023-06-10T13:02:31;31.92;37.92
66144;SHT31;52947;50.842;6.084;2023-06-10T13:05:01;31.56;38.17
66144;SHT31;52947;50.842;6.084;2023-06-10T13:07:29;31.50;38.63
66144;SHT31;52947;50.842;6.084;2023-06-10T13:09:57;31.36;39.65
66144;SHT31;52947;50.842;6.084;2023-06-10T13:12:25;31.49;38.91
66144;SHT31;52947;50.842;6.084;2023-06-10T13:15:15;31.38;39.92
66144;SHT31;52947;50.842;6.084;2023-06-10T13:17:43;31.76;39.02
66144;SHT31;52947;50.842;6.084;2023-06-10T13:20:13;31.59;41.06
66144;SHT31;52947;50.842;6.084;2023-06-10T13:22:42;31.56;39.71
66144;SHT31;52947;50.842;6.084;2023-06-10T13:25:10;31.63;40.44
66144;SHT31;52947;50.842;6.084;2023-06-10T13:27:38;31.66;39.12
66144;SHT31;52947;50.842;6.084;2023-06-10T13:30:08;31.02;39.31
66144;SHT31;52947;50.842;6.084;2023-06-10T13:32:37;30.16;39.76
66144;SHT31;52947;50.842;6.084;2023-06-10T13:35:05;30.24;39.30
66144;SHT31;52947;50.842;6.084;2023-06-10T13:37:36;30.78;39.39
66144;SHT31;52947;50.842;6.084;2023-06-10T13:40:05;31.10;39.10
66144;SHT31;52947;50.842;6.084;2023-06-10T13:42:34;30.59;39.16
66144;SHT31;52947;50.842;6.084;2023-06-10T13:45:04;30.56;43.14
66144;SHT31;52947;50.842;6.084;2023-06-10T13:47:33;30.41;44.05
66144;SHT31;52947;50.842;6.084;2023-06-10T13:50:01;30.30;44.26
66144;SHT31;52947;50.842;6.084;2023-06-10T13:52:29;29.78;45.06
66144;SHT31;52947;50.842;6.084;2023-06-10T13:54:59;29.17;45.04
66144;SHT31;52947;50.842;6.084;2023-06-10T13:57:26;28.79;46.58
66144;SHT31;52947;50.842;6.084;2023-06-10T13:59:54;28.83;46.91
66144;SHT31;52947;50.842;6.084;2023-06-10T14:02:23;29.24;46.09
66144;SHT31;52947;50.842;6.084;2023-06-10T14:04:51;29.14;46.19
66144;SHT31;52947;50.842;6.084;2023-06-10T14:07:19;29.18;46.10
66144;SHT31;52947;50.842;6.084;2023-06-10T14:09:47;29.34;46.48
66144;SHT31;52947;50.842;6.084;2023-06-10T14:12:19;29.58;45.04
66144;SHT31;52947;50.842;6.084;2023-06-10T14:14:47;29.57;44.93
66144;SHT31;52947;50.842;6.084;2023-06-10T14:17:15;29.54;46.06
66144;SHT31;52947;50.842;6.084;2023-06-10T14:19:42;29.83;45.55
66144;SHT31;52947;50.842;6.084;2023-06-10T14:22:10;29.52;45.63
66144;SHT31;52947;50.842;6.084;2023-06-10T14:24:38;29.78;44.96
66144;SHT31;52947;50.842;6.084;2023-06-10T14:27:06;29.45;45.39
66144;SHT31;52947;50.842;6.084;2023-06-10T14:29:36;29.47;43.64
66144;SHT31;52947;50.842;6.084;2023-06-10T14:32:04;29.27;44.23
66144;SHT31;52947;50.842;6.084;2023-06-10T14:34:35;29.76;44.82
66144;SHT31;52947;50.842;6.084;2023-06-10T14:37:03;29.44;44.87
66144;SHT31;52947;50.842;6.084;2023-06-10T14:39:34;29.04;45.06
66144;SHT31;52947;50.842;6.084;2023-06-10T14:42:02;29.27;45.47
66144;SHT31;52947;50.842;6.084;2023-06-10T14:44:30;28.90;45.42
66144;SHT31;52947;50.842;6.084;2023-06-10T14:46:59;29.11;45.52
66144;SHT31;52947;50.842;6.084;2023-06-10T14:49:27;29.48;45.28
66144;SHT31;52947;50.842;6.084;2023-06-10T14:51:55;29.58;45.27
66144;SHT31;52947;50.842;6.084;2023-06-10T14:54:23;29.90;44.59
66144;SHT31;52947;50.842;6.084;2023-06-10T14:56:51;30.01;44.26
66144;SHT31;52947;50.842;6.084;2023-06-10T14:59:18;29.93;44.39
66144;SHT31;52947;50.842;6.084;2023-06-10T15:01:46;29.82;41.33
66144;SHT31;52947;50.842;6.084;2023-06-10T15:04:16;29.78;41.16
66144;SHT31;52947;50.842;6.084;2023-06-10T15:06:48;29.88;42.88
66144;SHT31;52947;50.842;6.084;2023-06-10T15:09:16;29.88;44.96
66144;SHT31;52947;50.842;6.084;2023-06-10T15:11:44;29.32;45.80
66144;SHT31;52947;50.842;6.084;2023-06-10T15:14:12;29.51;46.16
66144;SHT31;52947;50.842;6.084;2023-06-10T15:16:40;29.44;44.37
66144;SHT31;52947;50.842;6.084;2023-06-10T15:19:08;29.35;44.30
66144;SHT31;52947;50.842;6.084;2023-06-10T15:21:38;29.23;44.45
66144;SHT31;52947;50.842;6.084;2023-06-10T15:24:06;29.23;44.20
66144;SHT31;52947;50.842;6.084;2023-06-10T15:26:34;29.34;43.78
66144;SHT31;52947;50.842;6.084;2023-06-10T15:29:02;29.32;43.62
66144;SHT31;52947;50.842;6.084;2023-06-10T15:31:31;29.47;44.01
66144;SHT31;52947;50.842;6.084;2023-06-10T15:33:59;29.47;43.11
66144;SHT31;52947;50.842;6.084;2023-06-10T15:36:27;29.64;43.53
66144;SHT31;52947;50.842;6.084;2023-06-10T15:39:00;29.58;42.54
66144;SHT31;52947;50.842;6.084;2023-06-10T15:41:28;29.72;43.29
66144;SHT31;52947;50.842;6.084;2023-06-10T15:43:56;29.76;43.03
66144;SHT31;52947;50.842;6.084;2023-06-10T15:46:26;29.99;42.90